sensor_id;sensor_type;location;lat;lon;timestamp;pressure;altitude;pressure_sealevel;temperature;humidity
36092;BME280;22147;52.388;13.390;2022-12-18T00:01:49;102675.75;;;-7.76;100.00
36092;BME280;22147;52.388;13.390;2022-12-18T00:04:25;102674.59;;;-7.74;100.00
36092;BME280;22147;52.388;13.390;2022-12-18T00:06:56;102681.81;;;-7.48;100.00
36092;BME280;22147;52.388;13.390;2022-12-18T00:09:26;102683.97;;;-7.52;100.00
36092;BME280;22147;52.388;13.390;2022-12-18T00:12:09;102679.28;;;-7.76;100.00
36092;BME280;22147;52.388;13.390;2022-12-18T00:14:44;102693.13;;;-7.71;100.00
36092;BME280;22147;52.388;13.390;2022-12-18T00:17:14;102688.22;;;-7.75;100.00
36092;BME280;22147;52.388;13.390;2022-12-18T00:19:44;102683.94;;;-7.86;100.00
36092;BME280;22147;52.388;13.390;2022-12-18T00:22:14;102684.66;;;-8.02;100.00
36092;BME280;22147;52.388;13.390;2022-12-18T00:24:44;102690.34;;;-7.87;100.00
36092;BME280;22147;52.388;13.390;2022-12-18T00:27:14;102692.72;;;-7.84;100.00
36092;BME280;22147;52.388;13.390;2022-12-18T00:29:44;102682.78;;;-7.84;100.00
36092;BME280;22147;52.388;13.390;2022-12-18T00:32:14;102673.63;;;-7.65;100.00
36092;BME280;22147;52.388;13.390;2022-12-18T00:34:44;102686.16;;;-7.82;100.00
36092;BME280;22147;52.388;13.390;2022-12-18T00:37:14;102666.34;;;-7.72;100.00
36092;BME280;22147;52.388;13.390;2022-12-18T00:39:48;102667.34;;;-7.73;100.00
36092;BME280;22147;52.388;13.390;2022-12-18T00:42:19;102668.13;;;-7.81;100.00
36092;BME280;22147;52.388;13.390;2022-12-18T00:45:08;102674.19;;;-7.79;100.00
36092;BME280;22147;52.388;13.390;2022-12-18T00:47:41;102674.03;;;-7.78;100.00
36092;BME280;22147;52.388;13.390;2022-12-18T00:50:11;102672.25;;;-7.69;100.00
36092;BME280;22147;52.388;13.390;2022-12-18T00:52:40;102674.03;;;-7.78;100.00
36092;BME280;22147;52.388;13.390;2022-12-18T00:55:09;102671.34;;;-7.78;100.00
36092;BME280;22147;52.388;13.390;2022-12-18T00:57:40;102672.53;;;-7.80;100.00
36092;BME280;22147;52.388;13.390;2022-12-18T01:00:13;102671.03;;;-7.74;100.00
36092;BME280;22147;52.388;13.390;2022-12-18T01:02:44;102667.81;;;-7.78;100.00
36092;BME280;22147;52.388;13.390;2022-12-18T01:05:15;102675.06;;;-7.79;100.00
36092;BME280;22147;52.388;13.390;2022-12-18T01:07:45;102677.22;;;-7.82;100.00
36092;BME280;22147;52.388;13.390;2022-12-18T01:10:15;102676.84;;;-7.61;100.00
36092;BME280;22147;52.388;13.390;2022-12-18T01:12:45;102679.28;;;-7.76;100.00
36092;BME280;22147;52.388;13.390;2022-12-18T01:15:16;102676.38;;;-7.83;100.00
36092;BME280;22147;52.388;13.390;2022-12-18T01:17:47;102686.78;;;-7.88;100.00
36092;BME280;22147;52.388;13.390;2022-12-18T01:20:17;102682.66;;;-8.00;100.00
36092;BME280;22147;52.388;13.390;2022-12-18T01:22:47;102688.22;;;-8.02;100.00
36092;BME280;22147;52.388;13.390;2022-12-18T01:25:17;102694.88;;;-7.88;100.00
36092;BME280;22147;52.388;13.390;2022-12-18T01:27:48;102694.94;;;-7.80;100.00
36092;BME280;22147;52.388;13.390;2022-12-18T01:30:18;102702.78;;;-7.94;100.00
36092;BME280;22147;52.388;13.390;2022-12-18T01:32:48;102709.47;;;-7.99;100.00
36092;BME280;22147;52.388;13.390;2022-12-18T01:35:18;102701.94;;;-8.13;100.00
36092;BME280;22147;52.388;13.390;2022-12-18T01:37:48;102710.44;;;-8.08;100.00
36092;BME280;22147;52.388;13.390;2022-12-18T01:40:18;102703.19;;;-8.07;100.00
36092;BME280;22147;52.388;13.390;2022-12-18T01:42:54;102710.09;;;-7.87;100.00
36092;BME280;22147;52.388;13.390;2022-12-18T01:45:30;102702.91;;;-7.96;100.00
36092;BME280;22147;52.388;13.390;2022-12-18T01:48:09;102705.25;;;-8.01;100.00
36092;BME280;22147;52.388;13.390;2022-12-18T01:50:42;102713.66;;;-8.04;100.00
36092;BME280;22147;52.388;13.390;2022-12-18T01:53:15;102719.34;;;-8.07;100.00
36092;BME280;22147;52.388;13.390;2022-12-18T01:55:53;102712.09;;;-8.07;100.00
36092;BME280;22147;52.388;13.390;2022-12-18T01:58:52;102713.88;;;-8.15;100.00
36092;BME280;22147;52.388;13.390;2022-12-18T02:01:31;102708.28;;;-8.22;100.00
36092;BME280;22147;52.388;13.390;2022-12-18T02:04:26;102707.03;;;-8.10;100.00
36092;BME280;22147;52.388;13.390;2022-12-18T02:07:11;102704.13;;;-8.16;100.00
36092;BME280;22147;52.388;13.390;2022-12-18T02:23:24;102718.75;;;-8.19;100.00
36092;BME280;22147;52.388;13.390;2022-12-18T02:29:13;102729.63;;;-8.29;100.00
36092;BME280;22147;52.388;13.390;2022-12-18T02:32:15;102727.31;;;-8.24;100.00
36092;BME280;22147;52.388;13.390;2022-12-18T02:34:55;102735.22;;;-8.48;100.00
36092;BME280;22147;52.388;13.390;2022-12-18T02:37:30;102726.25;;;-8.49;100.00
36092;BME280;22147;52.388;13.390;2022-12-18T02:40:05;102734.09;;;-8.37;100.00
36092;BME280;22147;52.388;13.390;2022-12-18T02:42:36;102735.31;;;-8.14;100.00
36092;BME280;22147;52.388;13.390;2022-12-18T02:45:07;102737.94;;;-8.22;100.00
36092;BME280;22147;52.388;13.390;2022-12-18T02:47:43;102734.53;;;-8.24;100.00
36092;BME280;22147;52.388;13.390;2022-12-18T02:50:41;102738.78;;;-8.22;100.00
36092;BME280;22147;52.388;13.390;2022-12-18T02:53:33;102737.47;;;-8.18;100.00
36092;BME280;22147;52.388;13.390;2022-12-18T02:56:26;102729.84;;;-8.22;100.00
36092;BME280;22147;52.388;13.390;2022-12-18T02:59:18;102732.38;;;-8.03;100.00
36092;BME280;22147;52.388;13.390;2022-12-18T03:02:11;102730.22;;;-8.17;100.00
36092;BME280;22147;52.388;13.390;2022-12-18T03:05:06;102735.31;;;-8.32;100.00
36092;BME280;22147;52.388;13.390;2022-12-18T03:10:32;102745.03;;;-8.21;100.00
36092;BME280;22147;52.388;13.390;2022-12-18T03:13:18;102740.03;;;-8.16;100.00
36092;BME280;22147;52.388;13.390;2022-12-18T03:15:57;102736.00;;;-8.12;100.00
36092;BME280;22147;52.388;13.390;2022-12-18T03:18:42;102748.41;;;-8.19;100.00
36092;BME280;22147;52.388;13.390;2022-12-18T03:21:23;102750.94;;;-8.18;100.00
36092;BME280;22147;52.388;13.390;2022-12-18T03:23:56;102749.16;;;-8.09;100.00
36092;BME280;22147;52.388;13.390;2022-12-18T03:26:29;102745.88;;;-8.21;100.00
36092;BME280;22147;52.388;13.390;2022-12-18T03:29:07;102752.34;;;-8.13;100.00
36092;BME280;22147;52.388;13.390;2022-12-18T03:31:49;102748.56;;;-8.03;100.00
36092;BME280;22147;52.388;13.390;2022-12-18T03:34:34;102750.03;;;-8.08;100.00
36092;BME280;22147;52.388;13.390;2022-12-18T03:37:08;102758.28;;;-8.10;100.00
36092;BME280;22147;52.388;13.390;2022-12-18T03:39:39;102752.34;;;-8.13;100.00
36092;BME280;22147;52.388;13.390;2022-12-18T03:42:38;102750.34;;;-8.11;100.00
36092;BME280;22147;52.388;13.390;2022-12-18T03:45:32;102742.38;;;-8.13;100.00
36092;BME280;22147;52.388;13.390;2022-12-18T03:48:18;102738.25;;;-8.25;100.00
36092;BME280;22147;52.388;13.390;2022-12-18T03:51:42;102742.19;;;-8.37;100.00
36092;BME280;22147;52.388;13.390;2022-12-18T03:54:26;102742.97;;;-8.27;100.00
36092;BME280;22147;52.388;13.390;2022-12-18T03:57:10;102740.97;;;-8.43;100.00
36092;BME280;22147;52.388;13.390;2022-12-18T04:00:02;102742.63;;;-8.24;100.00
36092;BME280;22147;52.388;13.390;2022-12-18T04:02:48;102741.94;;;-8.26;100.00
36092;BME280;22147;52.388;13.390;2022-12-18T04:05:25;102748.81;;;-8.14;100.00
36092;BME280;22147;52.388;13.390;2022-12-18T04:07:58;102750.59;;;-8.23;100.00
36092;BME280;22147;52.388;13.390;2022-12-18T04:10:29;102746.69;;;-8.46;100.00
36092;BME280;22147;52.388;13.390;2022-12-18T04:13:00;102752.91;;;-8.46;100.00
36092;BME280;22147;52.388;13.390;2022-12-18T04:15:35;102753.75;;;-8.27;100.00
36092;BME280;22147;52.388;13.390;2022-12-18T04:18:07;102750.66;;;-8.32;100.00
36092;BME280;22147;52.388;13.390;2022-12-18T04:20:38;102749.81;;;-8.33;100.00
36092;BME280;22147;52.388;13.390;2022-12-18T04:23:08;102753.34;;;-8.32;100.00
36092;BME280;22147;52.388;13.390;2022-12-18T04:25:38;102762.03;;;-8.39;100.00
36092;BME280;22147;52.388;13.390;2022-12-18T04:28:08;102769.81;;;-8.18;100.00
36092;BME280;22147;52.388;13.390;2022-12-18T04:30:38;102772.22;;;-8.32;100.00
36092;BME280;22147;52.388;13.390;2022-12-18T04:33:11;102770.31;;;-8.40;100.00
36092;BME280;22147;52.388;13.390;2022-12-18T04:35:42;102764.72;;;-8.39;100.00
36092;BME280;22147;52.388;13.390;2022-12-18T04:38:13;102770.63;;;-8.43;100.00
36092;BME280;22147;52.388;13.390;2022-12-18T04:40:43;102771.13;;;-8.40;100.00
36092;BME280;22147;52.388;13.390;2022-12-18T04:43:13;102769.59;;;-8.24;100.00
36092;BME280;22147;52.388;13.390;2022-12-18T04:45:43;102778.16;;;-8.29;100.00
36092;BME280;22147;52.388;13.390;2022-12-18T04:48:13;102777.88;;;-8.44;100.00
36092;BME280;22147;52.388;13.390;2022-12-18T04:50:44;102769.53;;;-8.14;100.00
36092;BME280;22147;52.388;13.390;2022-12-18T04:53:14;102779.06;;;-8.20;100.00
36092;BME280;22147;52.388;13.390;2022-12-18T04:55:42;102781.53;;;-8.27;100.00
36092;BME280;22147;52.388;13.390;2022-12-18T04:58:11;102787.69;;;-8.34;100.00
36092;BME280;22147;52.388;13.390;2022-12-18T05:00:39;102777.72;;;-8.42;100.00
36092;BME280;22147;52.388;13.390;2022-12-18T05:03:07;102792.34;;;-8.27;100.00
36092;BME280;22147;52.388;13.390;2022-12-18T05:05:36;102784.31;;;-8.36;100.00
36092;BME280;22147;52.388;13.390;2022-12-18T05:08:04;102776.47;;;-8.12;100.00
36092;BME280;22147;52.388;13.390;2022-12-18T05:10:33;102771.38;;;-8.33;100.00
36092;BME280;22147;52.388;13.390;2022-12-18T05:13:04;102779.53;;;-8.25;100.00
36092;BME280;22147;52.388;13.390;2022-12-18T05:15:33;102786.94;;;-8.27;100.00
36092;BME280;22147;52.388;13.390;2022-12-18T05:18:03;102791.16;;;-8.24;100.00
36092;BME280;22147;52.388;13.390;2022-12-18T05:20:34;102801.09;;;-8.07;100.00
36092;BME280;22147;52.388;13.390;2022-12-18T05:23:04;102797.19;;;-8.12;100.00
36092;BME280;22147;52.388;13.390;2022-12-18T05:25:34;102784.47;;;-8.38;100.00
36092;BME280;22147;52.388;13.390;2022-12-18T05:28:04;102791.09;;;-8.14;100.00
36092;BME280;22147;52.388;13.390;2022-12-18T05:30:34;102789.63;;;-8.27;100.00
36092;BME280;22147;52.388;13.390;2022-12-18T05:33:04;102803.16;;;-8.36;100.00
36092;BME280;22147;52.388;13.390;2022-12-18T05:35:34;102809.38;;;-8.44;100.00
36092;BME280;22147;52.388;13.390;2022-12-18T05:38:04;102811.38;;;-8.46;100.00
36092;BME280;22147;52.388;13.390;2022-12-18T05:40:34;102813.19;;;-8.29;100.00
36092;BME280;22147;52.388;13.390;2022-12-18T05:43:04;102814.44;;;-8.23;100.00
36092;BME280;22147;52.388;13.390;2022-12-18T05:45:38;102820.13;;;-8.26;100.00
36092;BME280;22147;52.388;13.390;2022-12-18T05:48:13;102814.13;;;-8.38;100.00
36092;BME280;22147;52.388;13.390;2022-12-18T05:50:46;102826.25;;;-8.42;100.00
36092;BME280;22147;52.388;13.390;2022-12-18T05:53:20;102816.50;;;-8.17;100.00
36092;BME280;22147;52.388;13.390;2022-12-18T05:55:50;102815.97;;;-8.03;100.00
36092;BME280;22147;52.388;13.390;2022-12-18T05:58:20;102825.00;;;-8.12;100.00
36092;BME280;22147;52.388;13.390;2022-12-18T06:00:50;102825.38;;;-8.25;100.00
36092;BME280;22147;52.388;13.390;2022-12-18T06:03:20;102824.91;;;-8.38;100.00
36092;BME280;22147;52.388;13.390;2022-12-18T06:05:50;102830.97;;;-8.36;100.00
36092;BME280;22147;52.388;13.390;2022-12-18T06:08:20;102822.88;;;-8.36;100.00
36092;BME280;22147;52.388;13.390;2022-12-18T06:10:52;102830.22;;;-8.28;100.00
36092;BME280;22147;52.388;13.390;2022-12-18T06:13:22;102846.63;;;-8.22;100.00
36092;BME280;22147;52.388;13.390;2022-12-18T06:15:52;102843.78;;;-8.02;100.00
36092;BME280;22147;52.388;13.390;2022-12-18T06:18:22;102841.19;;;-7.94;100.00
36092;BME280;22147;52.388;13.390;2022-12-18T06:20:57;102846.44;;;-8.10;100.00
36092;BME280;22147;52.388;13.390;2022-12-18T06:23:29;102858.44;;;-8.23;100.00
36092;BME280;22147;52.388;13.390;2022-12-18T06:25:57;102856.13;;;-8.18;100.00
36092;BME280;22147;52.388;13.390;2022-12-18T06:28:25;102847.97;;;-8.08;100.00
36092;BME280;22147;52.388;13.390;2022-12-18T06:30:54;102840.44;;;-8.04;100.00
36092;BME280;22147;52.388;13.390;2022-12-18T06:33:27;102849.59;;;-7.97;100.00
36092;BME280;22147;52.388;13.390;2022-12-18T06:36:04;102848.44;;;-7.94;100.00
36092;BME280;22147;52.388;13.390;2022-12-18T06:38:41;102853.84;;;-8.12;100.00
36092;BME280;22147;52.388;13.390;2022-12-18T06:41:19;102858.84;;;-8.00;100.00
36092;BME280;22147;52.388;13.390;2022-12-18T06:43:50;102863.00;;;-7.69;100.00
36092;BME280;22147;52.388;13.390;2022-12-18T06:46:27;102871.25;;;-7.89;100.00
36092;BME280;22147;52.388;13.390;2022-12-18T06:48:57;102872.53;;;-8.11;100.00
36092;BME280;22147;52.388;13.390;2022-12-18T06:51:27;102874.06;;;-8.26;100.00
36092;BME280;22147;52.388;13.390;2022-12-18T06:53:57;102877.59;;;-8.26;100.00
36092;BME280;22147;52.388;13.390;2022-12-18T06:56:27;102888.22;;;-8.24;100.00
36092;BME280;22147;52.388;13.390;2022-12-18T06:58:57;102895.13;;;-8.12;100.00
36092;BME280;22147;52.388;13.390;2022-12-18T07:01:27;102886.88;;;-8.10;100.00
36092;BME280;22147;52.388;13.390;2022-12-18T07:03:58;102886.34;;;-8.14;100.00
36092;BME280;22147;52.388;13.390;2022-12-18T07:06:28;102894.47;;;-8.24;100.00
36092;BME280;22147;52.388;13.390;2022-12-18T07:08:58;102898.91;;;-8.05;100.00
36092;BME280;22147;52.388;13.390;2022-12-18T07:11:28;102889.81;;;-8.04;100.00
36092;BME280;22147;52.388;13.390;2022-12-18T07:13:59;102889.31;;;-8.17;100.00
36092;BME280;22147;52.388;13.390;2022-12-18T07:16:29;102888.09;;;-8.23;100.00
36092;BME280;22147;52.388;13.390;2022-12-18T07:18:59;102888.94;;;-8.22;100.00
36092;BME280;22147;52.388;13.390;2022-12-18T07:21:29;102894.44;;;-8.14;100.00
36092;BME280;22147;52.388;13.390;2022-12-18T07:23:59;102883.91;;;-7.89;100.00
36092;BME280;22147;52.388;13.390;2022-12-18T07:26:29;102879.13;;;-7.95;100.00
36092;BME280;22147;52.388;13.390;2022-12-18T07:28:58;102891.50;;;-8.03;100.00
36092;BME280;22147;52.388;13.390;2022-12-18T07:31:27;102894.91;;;-8.01;100.00
36092;BME280;22147;52.388;13.390;2022-12-18T07:33:55;102884.34;;;-7.94;100.00
36092;BME280;22147;52.388;13.390;2022-12-18T07:36:24;102891.00;;;-7.88;100.00
36092;BME280;22147;52.388;13.390;2022-12-18T07:38:51;102893.63;;;-7.79;100.00
36092;BME280;22147;52.388;13.390;2022-12-18T07:41:20;102889.91;;;-7.95;100.00
36092;BME280;22147;52.388;13.390;2022-12-18T07:43:48;102888.38;;;-7.80;100.00
36092;BME280;22147;52.388;13.390;2022-12-18T07:46:18;102881.44;;;-7.83;100.00
36092;BME280;22147;52.388;13.390;2022-12-18T07:48:49;102895.00;;;-7.92;100.00
36092;BME280;22147;52.388;13.390;2022-12-18T07:51:18;102888.66;;;-7.83;100.00
36092;BME280;22147;52.388;13.390;2022-12-18T07:53:48;102890.31;;;-7.72;100.00
36092;BME280;22147;52.388;13.390;2022-12-18T07:56:21;102889.84;;;-7.68;100.00
36092;BME280;22147;52.388;13.390;2022-12-18T07:59:00;102881.44;;;-7.65;100.00
36092;BME280;22147;52.388;13.390;2022-12-18T08:01:33;102880.59;;;-7.65;100.00
36092;BME280;22147;52.388;13.390;2022-12-18T08:04:03;102888.00;;;-7.67;100.00
36092;BME280;22147;52.388;13.390;2022-12-18T08:06:33;102887.84;;;-7.66;100.00
36092;BME280;22147;52.388;13.390;2022-12-18T08:09:03;102896.47;;;-7.62;100.00
36092;BME280;22147;52.388;13.390;2022-12-18T08:11:33;102895.31;;;-7.60;100.00
36092;BME280;22147;52.388;13.390;2022-12-18T08:14:02;102890.06;;;-7.79;100.00
36092;BME280;22147;52.388;13.390;2022-12-18T08:16:32;102899.47;;;-7.65;100.00
36092;BME280;22147;52.388;13.390;2022-12-18T08:19:02;102895.31;;;-7.60;100.00
36092;BME280;22147;52.388;13.390;2022-12-18T08:21:32;102895.31;;;-7.60;100.00
36092;BME280;22147;52.388;13.390;2022-12-18T08:24:03;102899.22;;;-7.54;100.00
36092;BME280;22147;52.388;13.390;2022-12-18T08:26:32;102897.44;;;-7.27;100.00
36092;BME280;22147;52.388;13.390;2022-12-18T08:29:02;102906.72;;;-7.30;100.00
36092;BME280;22147;52.388;13.390;2022-12-18T08:31:32;102905.00;;;-7.31;100.00
36092;BME280;22147;52.388;13.390;2022-12-18T08:34:02;102897.81;;;-7.22;100.00
36092;BME280;22147;52.388;13.390;2022-12-18T08:36:32;102902.00;;;-7.46;100.00
36092;BME280;22147;52.388;13.390;2022-12-18T08:39:02;102906.31;;;-7.35;100.00
36092;BME280;22147;52.388;13.390;2022-12-18T08:41:32;102912.19;;;-7.40;100.00
36092;BME280;22147;52.388;13.390;2022-12-18T08:44:02;102908.94;;;-7.43;100.00
36092;BME280;22147;52.388;13.390;2022-12-18T08:46:51;102916.53;;;-7.47;100.00
36092;BME280;22147;52.388;13.390;2022-12-18T08:49:21;102923.13;;;-7.41;100.00
36092;BME280;22147;52.388;13.390;2022-12-18T08:51:55;102920.38;;;-7.49;100.00
36092;BME280;22147;52.388;13.390;2022-12-18T08:54:27;102934.47;;;-7.38;100.00
36092;BME280;22147;52.388;13.390;2022-12-18T08:56:56;102930.53;;;-7.43;100.00
36092;BME280;22147;52.388;13.390;2022-12-18T08:59:25;102944.38;;;-7.46;100.00
36092;BME280;22147;52.388;13.390;2022-12-18T09:01:55;102944.66;;;-7.31;100.00
36092;BME280;22147;52.388;13.390;2022-12-18T09:04:24;102946.63;;;-6.98;100.00
36092;BME280;22147;52.388;13.390;2022-12-18T09:06:55;102953.97;;;-7.08;100.00
36092;BME280;22147;52.388;13.390;2022-12-18T09:09:23;102956.91;;;-7.01;100.00
36092;BME280;22147;52.388;13.390;2022-12-18T09:11:53;102956.34;;;-6.87;100.00
36092;BME280;22147;52.388;13.390;2022-12-18T09:14:23;102963.13;;;-7.01;100.00
36092;BME280;22147;52.388;13.390;2022-12-18T09:16:52;102959.06;;;-7.05;100.00
36092;BME280;22147;52.388;13.390;2022-12-18T09:19:22;102962.78;;;-6.80;100.00
36092;BME280;22147;52.388;13.390;2022-12-18T09:21:52;102960.69;;;-6.68;100.00
36092;BME280;22147;52.388;13.390;2022-12-18T09:24:22;102960.50;;;-6.92;100.00
36092;BME280;22147;52.388;13.390;2022-12-18T09:26:55;102956.91;;;-7.01;100.00
36092;BME280;22147;52.388;13.390;2022-12-18T09:29:26;102954.59;;;-6.70;100.00
36092;BME280;22147;52.388;13.390;2022-12-18T09:31:55;102958.56;;;-6.82;100.00
36092;BME280;22147;52.388;13.390;2022-12-18T09:34:23;102969.72;;;-7.03;100.00
36092;BME280;22147;52.388;13.390;2022-12-18T09:36:52;102965.28;;;-6.86;100.00
36092;BME280;22147;52.388;13.390;2022-12-18T09:39:20;102958.47;;;-6.72;100.00
36092;BME280;22147;52.388;13.390;2022-12-18T09:41:57;102946.78;;;-6.47;100.00
36092;BME280;22147;52.388;13.390;2022-12-18T09:44:43;102940.03;;;-6.43;100.00
36092;BME280;22147;52.388;13.390;2022-12-18T09:47:18;102934.94;;;-6.46;100.00
36092;BME280;22147;52.388;13.390;2022-12-18T09:50:02;102934.44;;;-6.49;100.00
36092;BME280;22147;52.388;13.390;2022-12-18T09:52:47;102928.22;;;-6.42;100.00
36092;BME280;22147;52.388;13.390;2022-12-18T09:55:45;102927.28;;;-6.59;100.00
36092;BME280;22147;52.388;13.390;2022-12-18T09:58:33;102925.69;;;-6.35;100.00
36092;BME280;22147;52.388;13.390;2022-12-18T10:01:18;102914.06;;;-6.27;100.00
36092;BME280;22147;52.388;13.390;2022-12-18T10:03:54;102908.34;;;-6.16;100.00
36092;BME280;22147;52.388;13.390;2022-12-18T10:06:55;102897.38;;;-6.15;100.00
36092;BME280;22147;52.388;13.390;2022-12-18T10:16:27;102895.66;;;-6.24;100.00
36092;BME280;22147;52.388;13.390;2022-12-18T10:21:54;102893.47;;;-6.20;100.00
36092;BME280;22147;52.388;13.390;2022-12-18T10:25:02;102895.75;;;-6.07;100.00
36092;BME280;22147;52.388;13.390;2022-12-18T10:27:35;102894.88;;;-6.00;100.00
36092;BME280;22147;52.388;13.390;2022-12-18T10:30:26;102887.28;;;-5.88;100.00
36092;BME280;22147;52.388;13.390;2022-12-18T10:33:02;102890.00;;;-5.88;100.00
36092;BME280;22147;52.388;13.390;2022-12-18T10:35:35;102883.44;;;-5.61;100.00
36092;BME280;22147;52.388;13.390;2022-12-18T10:41:32;102884.59;;;-5.80;100.00
36092;BME280;22147;52.388;13.390;2022-12-18T10:44:17;102867.31;;;-5.87;100.00
36092;BME280;22147;52.388;13.390;2022-12-18T10:46:54;102865.63;;;-5.72;100.00
36092;BME280;22147;52.388;13.390;2022-12-18T10:49:50;102864.97;;;-5.65;100.00
36092;BME280;22147;52.388;13.390;2022-12-18T10:52:25;102861.78;;;-5.69;100.00
36092;BME280;22147;52.388;13.390;2022-12-18T10:55:02;102860.41;;;-5.81;100.00
36092;BME280;22147;52.388;13.390;2022-12-18T10:57:39;102853.16;;;-5.48;100.00
36092;BME280;22147;52.388;13.390;2022-12-18T11:00:24;102849.06;;;-5.60;100.00
36092;BME280;22147;52.388;13.390;2022-12-18T11:02:57;102846.22;;;-5.59;100.00
36092;BME280;22147;52.388;13.390;2022-12-18T11:05:32;102847.34;;;-5.69;100.00
36092;BME280;22147;52.388;13.390;2022-12-18T11:08:03;102840.09;;;-5.44;100.00
36092;BME280;22147;52.388;13.390;2022-12-18T11:10:37;102840.75;;;-5.50;100.00
36092;BME280;22147;52.388;13.390;2022-12-18T11:13:20;102837.72;;;-5.31;100.00
36092;BME280;22147;52.388;13.390;2022-12-18T11:15:53;102852.94;;;-5.14;100.00
36092;BME280;22147;52.388;13.390;2022-12-18T11:18:34;102849.25;;;-5.45;100.00
36092;BME280;22147;52.388;13.390;2022-12-18T11:21:08;102845.69;;;-5.46;100.00
36092;BME280;22147;52.388;13.390;2022-12-18T11:23:53;102847.72;;;-5.64;100.00
36092;BME280;22147;52.388;13.390;2022-12-18T11:26:34;102845.00;;;-5.73;100.00
36092;BME280;22147;52.388;13.390;2022-12-18T11:29:17;102839.06;;;-5.76;100.00
36092;BME280;22147;52.388;13.390;2022-12-18T11:31:50;102841.28;;;-5.63;100.00
36092;BME280;22147;52.388;13.390;2022-12-18T11:34:31;102840.63;;;-5.82;100.00
36092;BME280;22147;52.388;13.390;2022-12-18T11:37:04;102842.63;;;-5.84;100.00
36092;BME280;22147;52.388;13.390;2022-12-18T11:39:49;102846.88;;;-5.73;100.00
36092;BME280;22147;52.388;13.390;2022-12-18T11:45:43;102843.66;;;-5.52;100.00
36092;BME280;22147;52.388;13.390;2022-12-18T11:48:52;102852.28;;;-5.73;100.00
36092;BME280;22147;52.388;13.390;2022-12-18T11:54:34;102847.69;;;-5.89;100.00
36092;BME280;22147;52.388;13.390;2022-12-18T11:57:35;102857.03;;;-5.75;100.00
36092;BME280;22147;52.388;13.390;2022-12-18T12:00:22;102863.78;;;-5.71;100.00
36092;BME280;22147;52.388;13.390;2022-12-18T12:30:17;102869.53;;;-5.17;100.00
36092;BME280;22147;52.388;13.390;2022-12-18T12:36:16;102895.25;;;-4.96;100.00
36092;BME280;22147;52.388;13.390;2022-12-18T12:39:06;102898.66;;;-5.02;100.00
36092;BME280;22147;52.388;13.390;2022-12-18T12:41:44;102900.53;;;-5.11;100.00
36092;BME280;22147;52.388;13.390;2022-12-18T12:44:51;102898.47;;;-4.93;100.00
36092;BME280;22147;52.388;13.390;2022-12-18T12:47:34;102889.53;;;-5.09;100.00
36092;BME280;22147;52.388;13.390;2022-12-18T12:50:19;102882.44;;;-5.27;100.00
36092;BME280;22147;52.388;13.390;2022-12-18T12:52:55;102874.78;;;-5.32;100.00
36092;BME280;22147;52.388;13.390;2022-12-18T12:55:29;102866.84;;;-5.25;100.00
36092;BME280;22147;52.388;13.390;2022-12-18T12:58:23;102868.19;;;-5.21;100.00
36092;BME280;22147;52.388;13.390;2022-12-18T13:07:06;102849.22;;;-5.21;100.00
36092;BME280;22147;52.388;13.390;2022-12-18T13:13:11;102850.94;;;-5.44;100.00
36092;BME280;22147;52.388;13.390;2022-12-18T13:16:07;102853.63;;;-5.53;100.00
36092;BME280;22147;52.388;13.390;2022-12-18T13:18:38;102856.00;;;-5.66;100.00
36092;BME280;22147;52.388;13.390;2022-12-18T13:24:27;102851.28;;;-5.31;100.00
36092;BME280;22147;52.388;13.390;2022-12-18T13:40:56;102835.19;;;-5.57;100.00
36092;BME280;22147;52.388;13.390;2022-12-18T13:43:42;102837.22;;;-5.67;100.00
36092;BME280;22147;52.388;13.390;2022-12-18T13:46:42;102838.75;;;-5.73;100.00
36092;BME280;22147;52.388;13.390;2022-12-18T13:51:59;102831.63;;;-5.58;100.00
36092;BME280;22147;52.388;13.390;2022-12-18T13:54:40;102823.50;;;-5.66;100.00
36092;BME280;22147;52.388;13.390;2022-12-18T13:57:37;102826.88;;;-5.80;100.00
36092;BME280;22147;52.388;13.390;2022-12-18T14:00:27;102817.78;;;-5.71;100.00
36092;BME280;22147;52.388;13.390;2022-12-18T14:02:59;102822.16;;;-5.45;100.00
36092;BME280;22147;52.388;13.390;2022-12-18T14:05:37;102806.91;;;-5.46;100.00
36092;BME280;22147;52.388;13.390;2022-12-18T14:08:14;102809.28;;;-5.76;100.00
36092;BME280;22147;52.388;13.390;2022-12-18T14:10:48;102817.75;;;-5.79;100.00
36092;BME280;22147;52.388;13.390;2022-12-18T14:13:31;102821.47;;;-5.72;100.00
36092;BME280;22147;52.388;13.390;2022-12-18T14:16:06;102818.09;;;-5.74;100.00
36092;BME280;22147;52.388;13.390;2022-12-18T14:18:54;102808.09;;;-5.74;100.00
36092;BME280;22147;52.388;13.390;2022-12-18T14:21:48;102809.13;;;-5.83;100.00
36092;BME280;22147;52.388;13.390;2022-12-18T14:24:21;102804.88;;;-5.53;100.00
36092;BME280;22147;52.388;13.390;2022-12-18T14:26:51;102791.84;;;-5.74;100.00
36092;BME280;22147;52.388;13.390;2022-12-18T14:29:29;102786.28;;;-5.80;100.00
36092;BME280;22147;52.388;13.390;2022-12-18T14:32:11;102767.34;;;-5.80;100.00
36092;BME280;22147;52.388;13.390;2022-12-18T14:34:50;102764.63;;;-5.80;100.00
36092;BME280;22147;52.388;13.390;2022-12-18T14:37:26;102763.09;;;-5.91;100.00
36092;BME280;22147;52.388;13.390;2022-12-18T14:40:02;102757.84;;;-5.68;100.00
36092;BME280;22147;52.388;13.390;2022-12-18T14:42:39;102755.66;;;-5.81;100.00
36092;BME280;22147;52.388;13.390;2022-12-18T14:51:22;102746.56;;;-6.04;100.00
36092;BME280;22147;52.388;13.390;2022-12-18T14:54:05;102751.47;;;-6.08;100.00
36092;BME280;22147;52.388;13.390;2022-12-18T14:57:00;102763.31;;;-5.93;100.00
36092;BME280;22147;52.388;13.390;2022-12-18T14:59:33;102765.16;;;-6.01;100.00